New Braunfels, TX (78132)

7:32 PM CDT on August 21, 2014 (GMT -0500)
Preiss Heights | Change Station
CLOSE
Current Station
Personal Weather Station
Location: New Braunfels, TX
Elevation: 690 ft
Nearby Weather Stations

Elev 690 ft 29.74 °N, 98.12 °W | Updated 2 seconds ago

Partly Cloudy
Partly Cloudy
95.5 °F
Feels Like 103 °F
N
0.0
Wind Variable Wind from ENE
Gusts 0.0 mph

Today
High -- | Low -- °F
--% Chance of Precip.
Yesterday
High -- | Low -- °F
Precip. -- in
7:03 AM 8:07 PM
Waning Crescent, 11% visible
Pressure 29.91 in
Visibility 10.0 miles
Clouds Few 8500 ft
Heat Index 103 °F
Dew Point 71 °F
Humidity 45%
Rainfall 0.00 in
Snow Depth Not available.
UV 1 out of 12
Pollen 8.10 out of 12
Ozone Good
PM2.5 Moderate
Flu Activity Not available.
METAR KBAZ 212351Z AUTO 17017G24KT 10SM FEW085 37/19 A2995 RMK AO2 SLP129 T03670189 10389 20350 55005

More Conditions Fewer Conditions

Pressure 29.91 in
Visibility 10.0 miles
Clouds Few 8500 ft
Heat Index 103 °F
Dew Point 71 °F
Humidity 45%
Rainfall 0.00 in
Snow Depth Not available.
UV 1 out of 12
Pollen 8.10 out of 12
Ozone Good
PM2.5 Moderate
Flu Activity Not available.
METAR KBAZ 212351Z AUTO 17017G24KT 10SM FEW085 37/19 A2995 RMK AO2 SLP129 T03670189 10389 20350 55005

More Conditions Fewer Conditions

10-Day Weather Forecast

Almanac

Astronomy

Aug. 21, 2014 Rise Set
Actual Time 7:03 AM CDT 8:07 PM CDT
Civil Twilight 6:38 AM CDT 8:31 PM CDT
Nautical Twilight 6:09 AM CDT 9:00 PM CDT
Astronomical Twilight 5:39 AM CDT 9:31 PM CDT
Moon 3:42 AM CDT (8/21) 5:30 PM CDT (8/21)
Length of Visible Light 13h 52m
Length of Day
13h 03m
Tomorrow will be 1m 38s shorter.
Waning Crescent, 11% of the Moon is Illuminated
Today
Waning Crescent
Aug 25
New
Sep 2
First Quarter
Sep 8
Full
Sep 15
Last Quarter

Today's Extremes

State Highs State Lows

Community

WunderPhotos

Upload Photos

1,746,073 photos uploaded!

Nearby

Air Quality

  Air Quality AQ Index Pollutant
Yesterday Moderate
PM2.5
Yesterday Good
OZONE
Current Moderate
PM2.5
Current Good
OZONE
Thursday Good
PM10
Thursday Good
OZONE
Friday Good
PM10
Friday Good
OZONE
Saturday Good
PM10
Saturday Good
OZONE
Sunday Good
PM10
Sunday Good
OZONE

Snow Depth

Station Depth Elevation
No new snow has been reported.

Earthquake Activity

City Distance Mag. Time & Date
No recent earthquake activity has been reported nearby.
Minimum magnitude displayed is 2.5.

Coastal Water Temperatures

Place Temperature
No Stations Reporting

Nearby Weather Stations